Search for airport 
image banner adimage banner adimage banner ad
image banner ad

PN07 - Cranes-N-Lifts Inc

Located in White Haven, United States

ICAO - PN07, IATA -

Data provided by Airmate  

General information

Coordinates: N41°1'51" W75°46'43"
Elevation is 1360 feet MSL.
Magnetic variation is -12° East
View others Airports in Pennsylvania

Operational data

Special qualification required
Current time UTC:
Current local time:
Weather at : KHZL - Hazleton Rgnl ( 19 km )
METAR: KHZL 071235Z AUTO 12004KT 10SM BKN090 10/M03 A2994 RMK AO2
View NOTAMs / SUP AIP / TFR affecting this airport [VIEW]
Communications frequencies: [VIEW]

Runways:

Airport contact information

Address: White Haven United States

Satellite view of PN07